sensor_id;sensor_type;location;lat;lon;timestamp;P1;durP1;ratioP1;P2;durP2;ratioP2
8252;SDS011;61313;48.396;10.008;2023-03-24T00:01:02;8.33;;;6.90;;
8252;SDS011;61313;48.396;10.008;2023-03-24T00:03:28;10.93;;;7.00;;
8252;SDS011;61313;48.396;10.008;2023-03-24T00:06:01;9.10;;;8.03;;
8252;SDS011;61313;48.396;10.008;2023-03-24T00:08:33;15.30;;;7.23;;
8252;SDS011;61313;48.396;10.008;2023-03-24T00:11:01;17.73;;;8.23;;
8252;SDS011;61313;48.396;10.008;2023-03-24T00:13:28;10.73;;;7.80;;
8252;SDS011;61313;48.396;10.008;2023-03-24T00:15:56;8.13;;;7.33;;
8252;SDS011;61313;48.396;10.008;2023-03-24T00:18:22;8.10;;;7.30;;
8252;SDS011;61313;48.396;10.008;2023-03-24T00:20:50;6.83;;;5.83;;
8252;SDS011;61313;48.396;10.008;2023-03-24T00:23:22;12.73;;;7.50;;
8252;SDS011;61313;48.396;10.008;2023-03-24T00:26:02;8.50;;;6.30;;
8252;SDS011;61313;48.396;10.008;2023-03-24T00:28:33;11.33;;;6.23;;
8252;SDS011;61313;48.396;10.008;2023-03-24T00:31:01;7.83;;;6.73;;
8252;SDS011;61313;48.396;10.008;2023-03-24T00:33:28;8.63;;;6.77;;
8252;SDS011;61313;48.396;10.008;2023-03-24T00:35:59;8.60;;;6.07;;
8252;SDS011;61313;48.396;10.008;2023-03-24T00:38:29;9.67;;;6.80;;
8252;SDS011;61313;48.396;10.008;2023-03-24T00:40:56;7.83;;;6.57;;
8252;SDS011;61313;48.396;10.008;2023-03-24T00:43:23;6.73;;;6.13;;
8252;SDS011;61313;48.396;10.008;2023-03-24T00:45:49;10.50;;;6.87;;
8252;SDS011;61313;48.396;10.008;2023-03-24T00:48:16;9.63;;;7.33;;
8252;SDS011;61313;48.396;10.008;2023-03-24T00:50:44;11.20;;;7.70;;
8252;SDS011;61313;48.396;10.008;2023-03-24T00:53:12;16.67;;;9.90;;
8252;SDS011;61313;48.396;10.008;2023-03-24T00:55:43;19.90;;;11.97;;
8252;SDS011;61313;48.396;10.008;2023-03-24T00:58:12;24.77;;;12.03;;
8252;SDS011;61313;48.396;10.008;2023-03-24T01:00:47;22.87;;;12.43;;
8252;SDS011;61313;48.396;10.008;2023-03-24T01:03:14;21.23;;;11.97;;
8252;SDS011;61313;48.396;10.008;2023-03-24T01:05:40;20.63;;;10.37;;
8252;SDS011;61313;48.396;10.008;2023-03-24T01:08:12;15.20;;;9.63;;
8252;SDS011;61313;48.396;10.008;2023-03-24T01:10:44;7.30;;;6.60;;
8252;SDS011;61313;48.396;10.008;2023-03-24T01:13:22;8.87;;;7.80;;
8252;SDS011;61313;48.396;10.008;2023-03-24T01:15:51;11.30;;;6.90;;
8252;SDS011;61313;48.396;10.008;2023-03-24T01:18:17;10.27;;;7.07;;
8252;SDS011;61313;48.396;10.008;2023-03-24T01:20:43;18.33;;;8.03;;
8252;SDS011;61313;48.396;10.008;2023-03-24T01:23:11;10.00;;;7.27;;
8252;SDS011;61313;48.396;10.008;2023-03-24T01:25:38;8.57;;;6.50;;
8252;SDS011;61313;48.396;10.008;2023-03-24T01:28:06;10.67;;;8.33;;
8252;SDS011;61313;48.396;10.008;2023-03-24T01:30:32;8.23;;;7.43;;
8252;SDS011;61313;48.396;10.008;2023-03-24T01:32:57;8.50;;;7.10;;
8252;SDS011;61313;48.396;10.008;2023-03-24T01:35:24;7.57;;;6.90;;
8252;SDS011;61313;48.396;10.008;2023-03-24T01:37:50;9.13;;;7.67;;
8252;SDS011;61313;48.396;10.008;2023-03-24T01:40:18;8.30;;;6.97;;
8252;SDS011;61313;48.396;10.008;2023-03-24T01:42:47;13.80;;;7.47;;
8252;SDS011;61313;48.396;10.008;2023-03-24T01:48:27;15.00;;;7.73;;
8252;SDS011;61313;48.396;10.008;2023-03-24T01:51:15;15.13;;;7.50;;
8252;SDS011;61313;48.396;10.008;2023-03-24T01:53:44;7.07;;;6.40;;
8252;SDS011;61313;48.396;10.008;2023-03-24T01:56:14;8.00;;;6.57;;
8252;SDS011;61313;48.396;10.008;2023-03-24T01:58:40;8.57;;;7.10;;
8252;SDS011;61313;48.396;10.008;2023-03-24T02:01:11;7.73;;;6.30;;
8252;SDS011;61313;48.396;10.008;2023-03-24T02:03:36;9.60;;;6.60;;
8252;SDS011;61313;48.396;10.008;2023-03-24T02:06:04;10.47;;;6.50;;
8252;SDS011;61313;48.396;10.008;2023-03-24T02:11:00;11.47;;;6.50;;
8252;SDS011;61313;48.396;10.008;2023-03-24T02:13:27;8.13;;;7.00;;
8252;SDS011;61313;48.396;10.008;2023-03-24T02:46:50;14.83;;;7.53;;
8252;SDS011;61313;48.396;10.008;2023-03-24T02:52:15;10.40;;;7.30;;
8252;SDS011;61313;48.396;10.008;2023-03-24T02:54:56;9.73;;;7.30;;
8252;SDS011;61313;48.396;10.008;2023-03-24T03:02:35;8.10;;;7.30;;
8252;SDS011;61313;48.396;10.008;2023-03-24T03:05:08;8.00;;;7.20;;
8252;SDS011;61313;48.396;10.008;2023-03-24T03:07:40;10.77;;;6.97;;
8252;SDS011;61313;48.396;10.008;2023-03-24T03:10:13;8.40;;;6.47;;
8252;SDS011;61313;48.396;10.008;2023-03-24T03:12:43;10.43;;;8.00;;
8252;SDS011;61313;48.396;10.008;2023-03-24T03:15:21;11.77;;;7.40;;
8252;SDS011;61313;48.396;10.008;2023-03-24T03:17:52;9.57;;;6.57;;
8252;SDS011;61313;48.396;10.008;2023-03-24T03:20:23;8.13;;;7.33;;
8252;SDS011;61313;48.396;10.008;2023-03-24T03:22:52;13.43;;;8.13;;
8252;SDS011;61313;48.396;10.008;2023-03-24T03:25:26;7.87;;;7.00;;
8252;SDS011;61313;48.396;10.008;2023-03-24T03:27:56;8.40;;;7.30;;
8252;SDS011;61313;48.396;10.008;2023-03-24T03:32:55;11.03;;;7.47;;
8252;SDS011;61313;48.396;10.008;2023-03-24T03:35:41;7.73;;;6.93;;
8252;SDS011;61313;48.396;10.008;2023-03-24T03:38:59;11.43;;;7.83;;
8252;SDS011;61313;48.396;10.008;2023-03-24T03:41:17;12.23;;;7.87;;
8252;SDS011;61313;48.396;10.008;2023-03-24T03:43:44;14.43;;;7.37;;
8252;SDS011;61313;48.396;10.008;2023-03-24T03:46:12;8.90;;;7.53;;
8252;SDS011;61313;48.396;10.008;2023-03-24T03:48:38;7.63;;;6.93;;
8252;SDS011;61313;48.396;10.008;2023-03-24T03:51:04;12.33;;;7.67;;
8252;SDS011;61313;48.396;10.008;2023-03-24T03:53:32;7.90;;;7.20;;
8252;SDS011;61313;48.396;10.008;2023-03-24T03:56:07;26.30;;;8.50;;
8252;SDS011;61313;48.396;10.008;2023-03-24T03:58:34;10.80;;;7.30;;
8252;SDS011;61313;48.396;10.008;2023-03-24T04:00:59;10.80;;;7.90;;
8252;SDS011;61313;48.396;10.008;2023-03-24T04:03:44;8.60;;;7.70;;
8252;SDS011;61313;48.396;10.008;2023-03-24T04:08:58;8.87;;;7.97;;
8252;SDS011;61313;48.396;10.008;2023-03-24T04:11:49;10.73;;;8.53;;
8252;SDS011;61313;48.396;10.008;2023-03-24T04:17:25;7.73;;;6.93;;
8252;SDS011;61313;48.396;10.008;2023-03-24T04:20:02;7.93;;;6.90;;
8252;SDS011;61313;48.396;10.008;2023-03-24T04:30:56;8.70;;;7.30;;
8252;SDS011;61313;48.396;10.008;2023-03-24T04:33:42;9.60;;;7.50;;
8252;SDS011;61313;48.396;10.008;2023-03-24T04:38:47;10.50;;;8.23;;
8252;SDS011;61313;48.396;10.008;2023-03-24T04:41:18;8.03;;;7.23;;
8252;SDS011;61313;48.396;10.008;2023-03-24T04:43:46;8.77;;;7.33;;
8252;SDS011;61313;48.396;10.008;2023-03-24T04:46:12;7.70;;;6.90;;
8252;SDS011;61313;48.396;10.008;2023-03-24T04:48:42;8.23;;;7.43;;
8252;SDS011;61313;48.396;10.008;2023-03-24T04:51:14;12.67;;;6.90;;
8252;SDS011;61313;48.396;10.008;2023-03-24T04:53:41;14.10;;;7.93;;
8252;SDS011;61313;48.396;10.008;2023-03-24T04:56:13;17.73;;;7.47;;
8252;SDS011;61313;48.396;10.008;2023-03-24T04:58:42;9.23;;;7.67;;
8252;SDS011;61313;48.396;10.008;2023-03-24T05:01:08;16.90;;;8.73;;
8252;SDS011;61313;48.396;10.008;2023-03-24T05:03:33;13.93;;;8.53;;
8252;SDS011;61313;48.396;10.008;2023-03-24T05:06:02;16.13;;;8.20;;
8252;SDS011;61313;48.396;10.008;2023-03-24T05:08:29;18.57;;;9.40;;
8252;SDS011;61313;48.396;10.008;2023-03-24T05:10:55;16.37;;;7.70;;
8252;SDS011;61313;48.396;10.008;2023-03-24T05:13:21;11.03;;;7.20;;
8252;SDS011;61313;48.396;10.008;2023-03-24T05:15:46;8.00;;;7.20;;
8252;SDS011;61313;48.396;10.008;2023-03-24T05:18:11;12.23;;;7.33;;
8252;SDS011;61313;48.396;10.008;2023-03-24T05:20:37;8.97;;;7.43;;
8252;SDS011;61313;48.396;10.008;2023-03-24T05:23:02;22.17;;;8.90;;
8252;SDS011;61313;48.396;10.008;2023-03-24T05:25:28;14.90;;;8.20;;
8252;SDS011;61313;48.396;10.008;2023-03-24T05:27:53;22.07;;;8.30;;
8252;SDS011;61313;48.396;10.008;2023-03-24T05:30:19;20.87;;;9.30;;
8252;SDS011;61313;48.396;10.008;2023-03-24T05:32:45;10.93;;;7.80;;
8252;SDS011;61313;48.396;10.008;2023-03-24T05:35:10;15.53;;;8.13;;
8252;SDS011;61313;48.396;10.008;2023-03-24T05:37:36;8.80;;;7.90;;
8252;SDS011;61313;48.396;10.008;2023-03-24T05:40:01;8.63;;;7.73;;
8252;SDS011;61313;48.396;10.008;2023-03-24T05:42:27;12.20;;;7.80;;
8252;SDS011;61313;48.396;10.008;2023-03-24T05:44:52;9.13;;;7.43;;
8252;SDS011;61313;48.396;10.008;2023-03-24T05:47:17;7.93;;;7.13;;
8252;SDS011;61313;48.396;10.008;2023-03-24T05:49:47;12.13;;;6.80;;
8252;SDS011;61313;48.396;10.008;2023-03-24T05:52:13;9.80;;;6.90;;
8252;SDS011;61313;48.396;10.008;2023-03-24T05:54:40;9.67;;;7.13;;
8252;SDS011;61313;48.396;10.008;2023-03-24T05:57:06;10.80;;;7.53;;
8252;SDS011;61313;48.396;10.008;2023-03-24T05:59:34;10.23;;;6.20;;
8252;SDS011;61313;48.396;10.008;2023-03-24T06:01:59;8.30;;;7.50;;
8252;SDS011;61313;48.396;10.008;2023-03-24T06:04:25;11.03;;;7.27;;
8252;SDS011;61313;48.396;10.008;2023-03-24T06:06:57;39.37;;;8.70;;
8252;SDS011;61313;48.396;10.008;2023-03-24T06:09:27;17.00;;;7.83;;
8252;SDS011;61313;48.396;10.008;2023-03-24T06:11:56;10.13;;;7.40;;
8252;SDS011;61313;48.396;10.008;2023-03-24T06:14:22;10.70;;;8.23;;
8252;SDS011;61313;48.396;10.008;2023-03-24T06:16:48;10.90;;;7.73;;
8252;SDS011;61313;48.396;10.008;2023-03-24T06:19:14;7.17;;;6.23;;
8252;SDS011;61313;48.396;10.008;2023-03-24T06:21:40;8.43;;;7.50;;
8252;SDS011;61313;48.396;10.008;2023-03-24T06:24:06;8.10;;;6.80;;
8252;SDS011;61313;48.396;10.008;2023-03-24T06:26:32;7.83;;;7.03;;
8252;SDS011;61313;48.396;10.008;2023-03-24T06:28:57;6.67;;;6.07;;
8252;SDS011;61313;48.396;10.008;2023-03-24T06:31:23;12.20;;;7.50;;
8252;SDS011;61313;48.396;10.008;2023-03-24T06:33:49;8.73;;;6.90;;
8252;SDS011;61313;48.396;10.008;2023-03-24T06:36:16;7.50;;;6.73;;
8252;SDS011;61313;48.396;10.008;2023-03-24T06:38:42;11.15;;;6.70;;
8252;SDS011;61313;48.396;10.008;2023-03-24T06:41:09;9.70;;;8.70;;
8252;SDS011;61313;48.396;10.008;2023-03-24T06:43:35;7.03;;;6.30;;
8252;SDS011;61313;48.396;10.008;2023-03-24T06:46:01;7.63;;;5.90;;
8252;SDS011;61313;48.396;10.008;2023-03-24T06:48:27;5.53;;;4.97;;
8252;SDS011;61313;48.396;10.008;2023-03-24T06:50:53;11.10;;;5.87;;
8252;SDS011;61313;48.396;10.008;2023-03-24T06:53:20;12.83;;;6.80;;
8252;SDS011;61313;48.396;10.008;2023-03-24T06:55:48;6.70;;;5.50;;
8252;SDS011;61313;48.396;10.008;2023-03-24T06:58:15;6.60;;;5.87;;
8252;SDS011;61313;48.396;10.008;2023-03-24T07:00:42;11.40;;;5.97;;
8252;SDS011;61313;48.396;10.008;2023-03-24T07:03:08;12.33;;;5.20;;
8252;SDS011;61313;48.396;10.008;2023-03-24T07:05:37;6.30;;;5.23;;
8252;SDS011;61313;48.396;10.008;2023-03-24T07:08:04;9.30;;;6.43;;
8252;SDS011;61313;48.396;10.008;2023-03-24T07:10:30;6.73;;;5.20;;
8252;SDS011;61313;48.396;10.008;2023-03-24T07:12:55;6.23;;;5.60;;
8252;SDS011;61313;48.396;10.008;2023-03-24T07:15:21;8.97;;;6.13;;
8252;SDS011;61313;48.396;10.008;2023-03-24T07:17:47;6.87;;;5.77;;
8252;SDS011;61313;48.396;10.008;2023-03-24T07:20:13;10.97;;;5.40;;
8252;SDS011;61313;48.396;10.008;2023-03-24T07:22:40;10.23;;;6.30;;
8252;SDS011;61313;48.396;10.008;2023-03-24T07:25:05;14.27;;;5.57;;
8252;SDS011;61313;48.396;10.008;2023-03-24T07:27:31;8.20;;;5.63;;
8252;SDS011;61313;48.396;10.008;2023-03-24T07:29:58;8.83;;;6.07;;
8252;SDS011;61313;48.396;10.008;2023-03-24T07:32:25;9.20;;;5.80;;
8252;SDS011;61313;48.396;10.008;2023-03-24T07:34:52;6.50;;;5.60;;
8252;SDS011;61313;48.396;10.008;2023-03-24T07:37:18;6.60;;;6.00;;
8252;SDS011;61313;48.396;10.008;2023-03-24T07:39:44;6.77;;;5.70;;
8252;SDS011;61313;48.396;10.008;2023-03-24T07:42:09;8.70;;;5.33;;
8252;SDS011;61313;48.396;10.008;2023-03-24T07:44:34;8.77;;;5.60;;
8252;SDS011;61313;48.396;10.008;2023-03-24T07:47:00;6.57;;;5.87;;
8252;SDS011;61313;48.396;10.008;2023-03-24T07:49:25;6.80;;;5.53;;
8252;SDS011;61313;48.396;10.008;2023-03-24T07:51:51;13.27;;;5.77;;
8252;SDS011;61313;48.396;10.008;2023-03-24T07:54:16;15.90;;;6.20;;
8252;SDS011;61313;48.396;10.008;2023-03-24T07:56:42;10.17;;;6.03;;
8252;SDS011;61313;48.396;10.008;2023-03-24T07:59:07;7.10;;;5.23;;
8252;SDS011;61313;48.396;10.008;2023-03-24T08:01:36;9.43;;;6.30;;
8252;SDS011;61313;48.396;10.008;2023-03-24T08:04:03;8.13;;;6.87;;
8252;SDS011;61313;48.396;10.008;2023-03-24T08:06:30;11.85;;;7.03;;
8252;SDS011;61313;48.396;10.008;2023-03-24T08:08:55;10.77;;;7.63;;
8252;SDS011;61313;48.396;10.008;2023-03-24T08:11:21;17.27;;;7.90;;
8252;SDS011;61313;48.396;10.008;2023-03-24T08:13:47;11.30;;;6.70;;
8252;SDS011;61313;48.396;10.008;2023-03-24T08:16:12;11.85;;;6.60;;
8252;SDS011;61313;48.396;10.008;2023-03-24T08:18:37;11.33;;;6.87;;
8252;SDS011;61313;48.396;10.008;2023-03-24T08:21:03;9.47;;;6.60;;
8252;SDS011;61313;48.396;10.008;2023-03-24T08:23:29;9.17;;;6.47;;
8252;SDS011;61313;48.396;10.008;2023-03-24T08:25:54;15.18;;;7.10;;
8252;SDS011;61313;48.396;10.008;2023-03-24T08:28:20;25.97;;;9.00;;
8252;SDS011;61313;48.396;10.008;2023-03-24T08:30:46;18.30;;;6.80;;
8252;SDS011;61313;48.396;10.008;2023-03-24T08:33:12;25.17;;;7.50;;
8252;SDS011;61313;48.396;10.008;2023-03-24T08:35:39;16.20;;;6.50;;
8252;SDS011;61313;48.396;10.008;2023-03-24T08:38:05;9.90;;;6.43;;
8252;SDS011;61313;48.396;10.008;2023-03-24T08:40:32;11.70;;;6.63;;
8252;SDS011;61313;48.396;10.008;2023-03-24T08:42:59;9.57;;;6.97;;
8252;SDS011;61313;48.396;10.008;2023-03-24T08:45:28;18.93;;;7.00;;
8252;SDS011;61313;48.396;10.008;2023-03-24T08:47:55;16.40;;;7.07;;
8252;SDS011;61313;48.396;10.008;2023-03-24T08:50:23;11.02;;;6.10;;
8252;SDS011;61313;48.396;10.008;2023-03-24T08:52:52;10.83;;;6.90;;
8252;SDS011;61313;48.396;10.008;2023-03-24T08:55:19;12.30;;;7.40;;
8252;SDS011;61313;48.396;10.008;2023-03-24T08:57:45;10.90;;;6.50;;
8252;SDS011;61313;48.396;10.008;2023-03-24T09:00:11;14.53;;;6.50;;
8252;SDS011;61313;48.396;10.008;2023-03-24T09:02:39;7.20;;;6.50;;
8252;SDS011;61313;48.396;10.008;2023-03-24T09:05:09;9.40;;;5.67;;
8252;SDS011;61313;48.396;10.008;2023-03-24T09:07:35;7.47;;;5.80;;
8252;SDS011;61313;48.396;10.008;2023-03-24T09:10:01;7.27;;;5.60;;
8252;SDS011;61313;48.396;10.008;2023-03-24T09:12:26;6.07;;;5.47;;
8252;SDS011;61313;48.396;10.008;2023-03-24T09:14:52;6.33;;;4.90;;
8252;SDS011;61313;48.396;10.008;2023-03-24T09:17:17;8.10;;;5.47;;
8252;SDS011;61313;48.396;10.008;2023-03-24T09:19:43;15.57;;;6.10;;
8252;SDS011;61313;48.396;10.008;2023-03-24T09:22:09;16.47;;;6.57;;
8252;SDS011;61313;48.396;10.008;2023-03-24T09:24:35;8.60;;;6.10;;
8252;SDS011;61313;48.396;10.008;2023-03-24T09:27:01;13.83;;;6.20;;
8252;SDS011;61313;48.396;10.008;2023-03-24T09:29:27;5.90;;;5.30;;
8252;SDS011;61313;48.396;10.008;2023-03-24T09:31:54;5.33;;;4.50;;
8252;SDS011;61313;48.396;10.008;2023-03-24T09:34:21;5.63;;;4.70;;
8252;SDS011;61313;48.396;10.008;2023-03-24T09:36:46;6.40;;;4.83;;
8252;SDS011;61313;48.396;10.008;2023-03-24T09:39:12;6.17;;;4.73;;
8252;SDS011;61313;48.396;10.008;2023-03-24T09:41:37;8.13;;;5.10;;
8252;SDS011;61313;48.396;10.008;2023-03-24T09:46:30;8.03;;;4.57;;
8252;SDS011;61313;48.396;10.008;2023-03-24T09:49:05;13.60;;;5.30;;
8252;SDS011;61313;48.396;10.008;2023-03-24T09:51:40;9.57;;;4.50;;
8252;SDS011;61313;48.396;10.008;2023-03-24T09:54:13;5.30;;;4.10;;
8252;SDS011;61313;48.396;10.008;2023-03-24T09:56:46;13.53;;;4.60;;
8252;SDS011;61313;48.396;10.008;2023-03-24T09:59:46;7.53;;;4.70;;
8252;SDS011;61313;48.396;10.008;2023-03-24T10:02:15;6.13;;;4.10;;
8252;SDS011;61313;48.396;10.008;2023-03-24T10:04:43;12.77;;;4.70;;
8252;SDS011;61313;48.396;10.008;2023-03-24T10:07:14;7.00;;;4.40;;
8252;SDS011;61313;48.396;10.008;2023-03-24T10:09:48;5.83;;;3.77;;
8252;SDS011;61313;48.396;10.008;2023-03-24T10:17:40;8.07;;;6.27;;
8252;SDS011;61313;48.396;10.008;2023-03-24T10:22:44;6.60;;;4.57;;
8252;SDS011;61313;48.396;10.008;2023-03-24T10:31:35;5.30;;;4.60;;
8252;SDS011;61313;48.396;10.008;2023-03-24T10:34:02;6.20;;;4.73;;
8252;SDS011;61313;48.396;10.008;2023-03-24T10:36:28;5.57;;;4.80;;
8252;SDS011;61313;48.396;10.008;2023-03-24T10:38:54;5.33;;;4.17;;
8252;SDS011;61313;48.396;10.008;2023-03-24T10:41:24;4.60;;;3.80;;
8252;SDS011;61313;48.396;10.008;2023-03-24T10:43:52;4.77;;;4.00;;
8252;SDS011;61313;48.396;10.008;2023-03-24T10:46:21;9.23;;;4.43;;
8252;SDS011;61313;48.396;10.008;2023-03-24T10:48:53;5.70;;;4.20;;
8252;SDS011;61313;48.396;10.008;2023-03-24T10:51:32;4.90;;;3.43;;
8252;SDS011;61313;48.396;10.008;2023-03-24T10:54:11;7.00;;;4.50;;
8252;SDS011;61313;48.396;10.008;2023-03-24T10:56:40;4.87;;;4.10;;
8252;SDS011;61313;48.396;10.008;2023-03-24T10:59:19;5.13;;;4.60;;
8252;SDS011;61313;48.396;10.008;2023-03-24T11:01:51;9.77;;;4.73;;
8252;SDS011;61313;48.396;10.008;2023-03-24T11:04:20;10.87;;;4.10;;
8252;SDS011;61313;48.396;10.008;2023-03-24T11:07:05;15.67;;;6.27;;
8252;SDS011;61313;48.396;10.008;2023-03-24T11:10:17;4.20;;;3.70;;
8252;SDS011;61313;48.396;10.008;2023-03-24T11:12:32;6.80;;;4.40;;
8252;SDS011;61313;48.396;10.008;2023-03-24T11:15:17;6.33;;;4.50;;
8252;SDS011;61313;48.396;10.008;2023-03-24T11:20:51;5.20;;;3.30;;
8252;SDS011;61313;48.396;10.008;2023-03-24T11:23:39;4.30;;;3.23;;
8252;SDS011;61313;48.396;10.008;2023-03-24T11:26:13;5.27;;;3.40;;
8252;SDS011;61313;48.396;10.008;2023-03-24T11:28:49;4.63;;;3.60;;
8252;SDS011;61313;48.396;10.008;2023-03-24T11:31:26;3.83;;;3.43;;
8252;SDS011;61313;48.396;10.008;2023-03-24T11:34:05;4.57;;;2.80;;
8252;SDS011;61313;48.396;10.008;2023-03-24T11:36:50;4.30;;;2.70;;
8252;SDS011;61313;48.396;10.008;2023-03-24T11:39:18;3.38;;;3.00;;
8252;SDS011;61313;48.396;10.008;2023-03-24T11:55:43;3.30;;;2.70;;
8252;SDS011;61313;48.396;10.008;2023-03-24T12:03:58;3.67;;;2.07;;
8252;SDS011;61313;48.396;10.008;2023-03-24T12:14:56;6.00;;;1.87;;
8252;SDS011;61313;48.396;10.008;2023-03-24T12:30:25;2.90;;;2.07;;
8252;SDS011;61313;48.396;10.008;2023-03-24T12:33:12;7.43;;;2.60;;
8252;SDS011;61313;48.396;10.008;2023-03-24T12:57:06;10.30;;;2.67;;
8252;SDS011;61313;48.396;10.008;2023-03-24T13:02:41;5.57;;;2.00;;
8252;SDS011;61313;48.396;10.008;2023-03-24T13:05:18;4.33;;;2.10;;
8252;SDS011;61313;48.396;10.008;2023-03-24T13:07:48;5.67;;;1.93;;
8252;SDS011;61313;48.396;10.008;2023-03-24T13:13:05;4.97;;;2.30;;
8252;SDS011;61313;48.396;10.008;2023-03-24T13:15:42;12.10;;;2.87;;
8252;SDS011;61313;48.396;10.008;2023-03-24T13:18:38;10.23;;;2.73;;
8252;SDS011;61313;48.396;10.008;2023-03-24T13:21:08;11.73;;;2.40;;
8252;SDS011;61313;48.396;10.008;2023-03-24T13:23:39;2.40;;;1.90;;
8252;SDS011;61313;48.396;10.008;2023-03-24T13:26:25;2.47;;;1.90;;
8252;SDS011;61313;48.396;10.008;2023-03-24T13:31:43;6.93;;;1.90;;
8252;SDS011;61313;48.396;10.008;2023-03-24T13:34:20;4.07;;;1.90;;
8252;SDS011;61313;48.396;10.008;2023-03-24T13:37:02;5.43;;;1.63;;
8252;SDS011;61313;48.396;10.008;2023-03-24T13:39:34;7.73;;;2.03;;
8252;SDS011;61313;48.396;10.008;2023-03-24T13:42:01;3.70;;;2.00;;
8252;SDS011;61313;48.396;10.008;2023-03-24T13:44:40;6.57;;;2.13;;
8252;SDS011;61313;48.396;10.008;2023-03-24T13:49:42;4.30;;;2.43;;
8252;SDS011;61313;48.396;10.008;2023-03-24T13:55:13;3.13;;;1.60;;
8252;SDS011;61313;48.396;10.008;2023-03-24T13:57:40;4.70;;;2.07;;
8252;SDS011;61313;48.396;10.008;2023-03-24T14:14:04;6.23;;;2.20;;
8252;SDS011;61313;48.396;10.008;2023-03-24T14:19:21;4.70;;;1.60;;
8252;SDS011;61313;48.396;10.008;2023-03-24T14:21:50;4.53;;;2.00;;
8252;SDS011;61313;48.396;10.008;2023-03-24T14:24:44;3.23;;;1.23;;
8252;SDS011;61313;48.396;10.008;2023-03-24T14:27:29;3.33;;;1.67;;
8252;SDS011;61313;48.396;10.008;2023-03-24T14:29:58;3.40;;;1.43;;
8252;SDS011;61313;48.396;10.008;2023-03-24T14:32:26;1.73;;;1.43;;
8252;SDS011;61313;48.396;10.008;2023-03-24T14:34:54;3.27;;;1.97;;
8252;SDS011;61313;48.396;10.008;2023-03-24T14:37:21;2.70;;;1.40;;
8252;SDS011;61313;48.396;10.008;2023-03-24T14:39:48;3.73;;;1.63;;
8252;SDS011;61313;48.396;10.008;2023-03-24T14:42:25;3.60;;;1.60;;
8252;SDS011;61313;48.396;10.008;2023-03-24T14:44:53;9.00;;;1.70;;
8252;SDS011;61313;48.396;10.008;2023-03-24T14:50:11;2.20;;;1.47;;
8252;SDS011;61313;48.396;10.008;2023-03-24T14:52:44;1.63;;;1.40;;
8252;SDS011;61313;48.396;10.008;2023-03-24T14:55:15;2.77;;;1.70;;
8252;SDS011;61313;48.396;10.008;2023-03-24T14:57:47;3.07;;;1.30;;
8252;SDS011;61313;48.396;10.008;2023-03-24T15:02:46;5.93;;;1.60;;
8252;SDS011;61313;48.396;10.008;2023-03-24T15:05:35;2.13;;;1.50;;
8252;SDS011;61313;48.396;10.008;2023-03-24T15:13:22;5.10;;;1.53;;
8252;SDS011;61313;48.396;10.008;2023-03-24T15:18:34;3.83;;;1.60;;
8252;SDS011;61313;48.396;10.008;2023-03-24T15:20:59;1.70;;;1.17;;
8252;SDS011;61313;48.396;10.008;2023-03-24T15:23:26;4.13;;;1.80;;
8252;SDS011;61313;48.396;10.008;2023-03-24T15:25:55;3.10;;;2.40;;
8252;SDS011;61313;48.396;10.008;2023-03-24T15:30:54;3.00;;;2.03;;
8252;SDS011;61313;48.396;10.008;2023-03-24T15:33:21;2.30;;;1.20;;
8252;SDS011;61313;48.396;10.008;2023-03-24T15:35:53;2.57;;;1.20;;
8252;SDS011;61313;48.396;10.008;2023-03-24T15:38:26;8.10;;;1.73;;
8252;SDS011;61313;48.396;10.008;2023-03-24T15:40:57;3.20;;;1.30;;
8252;SDS011;61313;48.396;10.008;2023-03-24T15:43:28;3.93;;;1.07;;
8252;SDS011;61313;48.396;10.008;2023-03-24T15:45:56;2.43;;;1.57;;
8252;SDS011;61313;48.396;10.008;2023-03-24T15:48:29;2.53;;;1.10;;
8252;SDS011;61313;48.396;10.008;2023-03-24T15:53:29;7.63;;;1.40;;
8252;SDS011;61313;48.396;10.008;2023-03-24T15:58:56;2.67;;;2.47;;
8252;SDS011;61313;48.396;10.008;2023-03-24T16:01:37;3.50;;;1.30;;
8252;SDS011;61313;48.396;10.008;2023-03-24T16:04:05;5.73;;;1.70;;
8252;SDS011;61313;48.396;10.008;2023-03-24T16:06:37;2.10;;;1.40;;
8252;SDS011;61313;48.396;10.008;2023-03-24T16:09:09;3.53;;;1.50;;
8252;SDS011;61313;48.396;10.008;2023-03-24T16:11:37;3.33;;;1.80;;
8252;SDS011;61313;48.396;10.008;2023-03-24T16:14:37;2.60;;;1.70;;
8252;SDS011;61313;48.396;10.008;2023-03-24T16:16:59;2.70;;;1.97;;
8252;SDS011;61313;48.396;10.008;2023-03-24T16:19:27;3.43;;;1.20;;
8252;SDS011;61313;48.396;10.008;2023-03-24T16:21:52;4.17;;;2.47;;
8252;SDS011;61313;48.396;10.008;2023-03-24T16:24:18;2.00;;;1.40;;
8252;SDS011;61313;48.396;10.008;2023-03-24T16:26:44;2.67;;;1.60;;
8252;SDS011;61313;48.396;10.008;2023-03-24T16:31:41;2.07;;;1.43;;
8252;SDS011;61313;48.396;10.008;2023-03-24T16:34:08;2.27;;;1.50;;
8252;SDS011;61313;48.396;10.008;2023-03-24T16:36:33;9.33;;;1.93;;
8252;SDS011;61313;48.396;10.008;2023-03-24T16:39:00;3.83;;;1.60;;
8252;SDS011;61313;48.396;10.008;2023-03-24T16:41:25;2.13;;;1.50;;
8252;SDS011;61313;48.396;10.008;2023-03-24T16:43:52;2.47;;;1.20;;
8252;SDS011;61313;48.396;10.008;2023-03-24T16:48:49;2.73;;;1.90;;
8252;SDS011;61313;48.396;10.008;2023-03-24T16:51:15;2.80;;;1.47;;
8252;SDS011;61313;48.396;10.008;2023-03-24T16:53:41;5.50;;;1.35;;
8252;SDS011;61313;48.396;10.008;2023-03-24T16:56:07;1.73;;;1.40;;
8252;SDS011;61313;48.396;10.008;2023-03-24T16:58:34;2.37;;;1.20;;
8252;SDS011;61313;48.396;10.008;2023-03-24T17:01:00;3.23;;;1.60;;
8252;SDS011;61313;48.396;10.008;2023-03-24T17:03:26;2.67;;;1.70;;
8252;SDS011;61313;48.396;10.008;2023-03-24T17:05:55;2.70;;;1.50;;
8252;SDS011;61313;48.396;10.008;2023-03-24T17:08:21;2.13;;;1.70;;
8252;SDS011;61313;48.396;10.008;2023-03-24T17:10:48;3.23;;;1.60;;
8252;SDS011;61313;48.396;10.008;2023-03-24T17:13:20;3.50;;;1.90;;
8252;SDS011;61313;48.396;10.008;2023-03-24T17:15:46;3.60;;;1.30;;
8252;SDS011;61313;48.396;10.008;2023-03-24T17:18:12;3.07;;;1.67;;
8252;SDS011;61313;48.396;10.008;2023-03-24T17:20:38;2.87;;;1.40;;
8252;SDS011;61313;48.396;10.008;2023-03-24T17:23:04;6.17;;;2.00;;
8252;SDS011;61313;48.396;10.008;2023-03-24T17:25:31;3.37;;;2.00;;
8252;SDS011;61313;48.396;10.008;2023-03-24T17:27:57;3.67;;;2.13;;
8252;SDS011;61313;48.396;10.008;2023-03-24T17:30:23;4.17;;;1.50;;
8252;SDS011;61313;48.396;10.008;2023-03-24T17:32:50;2.20;;;1.63;;
8252;SDS011;61313;48.396;10.008;2023-03-24T17:35:17;11.97;;;3.00;;
8252;SDS011;61313;48.396;10.008;2023-03-24T17:37:44;8.57;;;3.40;;
8252;SDS011;61313;48.396;10.008;2023-03-24T17:40:10;2.20;;;1.90;;
8252;SDS011;61313;48.396;10.008;2023-03-24T17:42:37;7.20;;;1.97;;
8252;SDS011;61313;48.396;10.008;2023-03-24T17:45:06;2.60;;;1.67;;
8252;SDS011;61313;48.396;10.008;2023-03-24T17:47:33;3.63;;;2.10;;
8252;SDS011;61313;48.396;10.008;2023-03-24T17:49:59;7.20;;;2.23;;
8252;SDS011;61313;48.396;10.008;2023-03-24T17:52:25;3.40;;;2.10;;
8252;SDS011;61313;48.396;10.008;2023-03-24T17:54:50;4.03;;;2.00;;
8252;SDS011;61313;48.396;10.008;2023-03-24T17:57:16;7.63;;;2.20;;
8252;SDS011;61313;48.396;10.008;2023-03-24T17:59:41;9.13;;;2.37;;
8252;SDS011;61313;48.396;10.008;2023-03-24T18:02:08;5.27;;;2.00;;
8252;SDS011;61313;48.396;10.008;2023-03-24T18:04:36;2.23;;;1.90;;
8252;SDS011;61313;48.396;10.008;2023-03-24T18:07:01;3.50;;;1.90;;
8252;SDS011;61313;48.396;10.008;2023-03-24T18:09:27;2.27;;;1.80;;
8252;SDS011;61313;48.396;10.008;2023-03-24T18:11:56;2.43;;;2.00;;
8252;SDS011;61313;48.396;10.008;2023-03-24T18:14:22;4.13;;;2.10;;
8252;SDS011;61313;48.396;10.008;2023-03-24T18:16:48;2.67;;;1.93;;
8252;SDS011;61313;48.396;10.008;2023-03-24T18:19:13;2.27;;;1.57;;